createdAt,value
2018-12-03T00:02:07.258Z,9.25
2018-12-03T00:04:35.544Z,9.33
2018-12-03T00:07:03.881Z,9.41
2018-12-03T00:09:32.181Z,9.47
2018-12-03T00:12:00.517Z,9.52
2018-12-03T00:14:28.835Z,9.57
2018-12-03T00:16:57.149Z,9.62
2018-12-03T00:19:25.455Z,9.65
2018-12-03T00:21:53.897Z,9.67
2018-12-03T00:24:22.199Z,9.69
2018-12-03T00:26:50.518Z,9.69
2018-12-03T00:29:18.872Z,9.73
2018-12-03T00:31:47.169Z,9.74
2018-12-03T00:34:15.491Z,9.79
2018-12-03T00:36:43.790Z,9.78
2018-12-03T00:39:12.120Z,9.72
2018-12-03T00:41:40.426Z,9.67
2018-12-03T00:44:08.747Z,9.63
2018-12-03T00:46:37.061Z,9.61
2018-12-03T00:49:05.645Z,9.58
2018-12-03T00:51:33.972Z,9.58
2018-12-03T00:54:02.422Z,9.57
2018-12-03T00:56:30.719Z,9.57
2018-12-03T00:58:59.024Z,9.55
2018-12-03T01:01:29.236Z,9.54
2018-12-03T01:03:57.579Z,9.52
2018-12-03T01:06:25.892Z,9.52
2018-12-03T01:08:54.227Z,9.51
2018-12-03T01:11:22.524Z,9.53
2018-12-03T01:13:50.828Z,9.58
2018-12-03T01:16:19.248Z,9.64
2018-12-03T01:18:47.555Z,9.70
2018-12-03T01:21:15.862Z,9.75
2018-12-03T01:23:44.290Z,9.82
2018-12-03T01:26:12.602Z,9.88
2018-12-03T01:28:40.902Z,9.94
2018-12-03T01:31:09.223Z,9.98
2018-12-03T01:33:37.538Z,10.03
2018-12-03T01:36:05.847Z,10.07
2018-12-03T01:38:34.186Z,10.12
2018-12-03T01:41:02.491Z,10.15
2018-12-03T01:43:30.801Z,10.19
2018-12-03T01:45:59.133Z,10.23
2018-12-03T01:48:27.448Z,10.27
2018-12-03T01:50:55.766Z,10.31
2018-12-03T01:53:24.084Z,10.36
2018-12-03T01:55:52.397Z,10.39
2018-12-03T01:58:20.707Z,10.42
2018-12-03T02:00:49.166Z,10.46
2018-12-03T02:03:17.473Z,10.48
2018-12-03T02:05:45.788Z,10.52
2018-12-03T02:08:14.166Z,10.53
2018-12-03T02:10:42.478Z,10.53
2018-12-03T02:13:10.780Z,10.53
2018-12-03T02:15:39.228Z,10.48
2018-12-03T02:18:07.536Z,10.41
2018-12-03T02:20:35.842Z,10.33
2018-12-03T02:23:04.178Z,10.27
2018-12-03T02:25:32.491Z,10.21
2018-12-03T02:28:00.790Z,10.20
2018-12-03T02:30:29.296Z,10.20
2018-12-03T02:32:57.613Z,10.24
2018-12-03T02:35:25.917Z,10.26
2018-12-03T02:37:54.337Z,10.27
2018-12-03T02:40:22.647Z,10.30
2018-12-03T02:42:50.952Z,10.31
2018-12-03T02:45:19.285Z,10.33
2018-12-03T02:47:47.638Z,10.36
2018-12-03T02:50:16.397Z,10.40
2018-12-03T02:52:44.927Z,10.43
2018-12-03T02:55:13.219Z,10.46
2018-12-03T02:57:41.535Z,10.47
2018-12-03T03:00:10.400Z,10.48
2018-12-03T03:02:38.698Z,10.50
2018-12-03T03:05:07.183Z,10.53
2018-12-03T03:07:35.699Z,10.55
2018-12-03T03:10:05.727Z,10.56
2018-12-03T03:12:34.038Z,10.58
2018-12-03T03:15:02.376Z,10.62
2018-12-03T03:17:30.693Z,10.65
2018-12-03T03:19:58.996Z,10.65
2018-12-03T03:22:27.327Z,10.68
2018-12-03T03:24:55.640Z,10.70
2018-12-03T03:27:23.966Z,10.71
2018-12-03T03:29:52.294Z,10.73
2018-12-03T03:32:20.598Z,10.74
2018-12-03T03:34:48.921Z,10.76
2018-12-03T03:37:17.235Z,10.77
2018-12-03T03:39:45.547Z,10.77
2018-12-03T03:42:13.951Z,10.77
2018-12-03T03:44:42.234Z,10.79
2018-12-03T03:47:10.537Z,10.79
2018-12-03T03:49:39.061Z,10.81
2018-12-03T03:52:07.377Z,10.82
2018-12-03T03:54:35.681Z,10.82
2018-12-03T03:57:03.998Z,10.81
2018-12-03T03:59:32.310Z,10.81
2018-12-03T04:02:00.616Z,10.81
2018-12-03T04:04:28.951Z,10.80
2018-12-03T04:06:57.292Z,10.79
2018-12-03T04:09:25.607Z,10.80
2018-12-03T04:11:53.927Z,10.79
2018-12-03T04:14:22.238Z,10.79
2018-12-03T04:16:50.556Z,10.79
2018-12-03T04:19:18.935Z,10.79
2018-12-03T04:21:47.240Z,10.80
2018-12-03T04:24:15.628Z,10.80
2018-12-03T04:26:44.231Z,10.80
2018-12-03T04:29:12.545Z,10.81
2018-12-03T04:31:40.877Z,10.82
2018-12-03T04:34:09.470Z,10.82
2018-12-03T04:36:37.792Z,10.80
2018-12-03T04:39:07.165Z,10.79
2018-12-03T04:41:35.493Z,10.77
2018-12-03T04:44:04.266Z,10.75
2018-12-03T04:46:32.571Z,10.73
2018-12-03T04:49:01.082Z,10.70
2018-12-03T04:51:29.383Z,10.68
2018-12-03T04:53:57.998Z,10.68
2018-12-03T04:56:26.331Z,10.69
2018-12-03T04:58:54.679Z,10.70
2018-12-03T05:01:22.976Z,10.71
2018-12-03T05:03:51.456Z,10.73
2018-12-03T05:06:19.776Z,10.75
2018-12-03T05:08:48.083Z,10.77
2018-12-03T05:11:16.455Z,10.78
2018-12-03T05:13:44.731Z,10.79
2018-12-03T05:16:13.047Z,10.80
2018-12-03T05:18:41.522Z,10.81
2018-12-03T05:21:09.834Z,10.83
2018-12-03T05:23:38.141Z,10.83
2018-12-03T05:26:06.461Z,10.85
2018-12-03T05:28:34.776Z,10.85
2018-12-03T05:31:03.111Z,10.86
2018-12-03T05:33:31.595Z,10.89
2018-12-03T05:35:59.911Z,10.90
2018-12-03T05:38:28.225Z,10.91
2018-12-03T05:40:56.852Z,10.91
2018-12-03T05:43:25.174Z,10.93
2018-12-03T05:45:53.472Z,10.94
2018-12-03T05:48:21.990Z,10.95
2018-12-03T05:50:50.291Z,10.97
2018-12-03T05:53:18.597Z,10.99
2018-12-03T05:55:47.102Z,11.01
2018-12-03T05:58:15.423Z,11.03
2018-12-03T06:00:43.727Z,11.04
2018-12-03T06:03:12.239Z,11.04
2018-12-03T06:05:40.609Z,11.07
2018-12-03T06:08:08.918Z,11.05
2018-12-03T06:10:37.377Z,11.04
2018-12-03T06:13:05.776Z,11.05
2018-12-03T06:15:34.096Z,11.05
2018-12-03T06:18:02.611Z,11.03
2018-12-03T06:20:30.921Z,11.02
2018-12-03T06:22:59.240Z,11.00
2018-12-03T06:25:27.641Z,11.01
2018-12-03T06:27:55.921Z,11.00
2018-12-03T06:30:24.222Z,10.97
2018-12-03T06:32:52.545Z,10.98
2018-12-03T06:35:21.029Z,10.97
2018-12-03T06:37:49.347Z,10.98
2018-12-03T06:40:17.711Z,10.98
2018-12-03T06:42:46.005Z,10.97
2018-12-03T06:45:14.313Z,10.98
2018-12-03T06:47:42.650Z,10.97
2018-12-03T06:50:11.040Z,10.97
2018-12-03T06:52:39.356Z,10.96
2018-12-03T06:55:08.017Z,10.97
2018-12-03T06:57:36.327Z,10.95
2018-12-03T07:00:06.908Z,10.95
2018-12-03T07:02:35.220Z,10.95
2018-12-03T07:05:06.649Z,10.94
2018-12-03T07:07:34.956Z,10.92
2018-12-03T07:10:04.125Z,10.93
2018-12-03T07:12:32.429Z,10.95
2018-12-03T07:15:00.735Z,10.98
2018-12-03T07:17:29.067Z,11.00
2018-12-03T07:19:57.378Z,11.02
2018-12-03T07:22:25.693Z,11.03
2018-12-03T07:24:54.034Z,11.07
2018-12-03T07:27:22.354Z,11.08
2018-12-03T07:29:53.041Z,11.07
2018-12-03T07:32:21.051Z,11.08
2018-12-03T07:34:49.370Z,11.09
2018-12-03T07:37:17.693Z,11.10
2018-12-03T07:39:46.231Z,11.12
2018-12-03T07:42:14.535Z,11.13
2018-12-03T07:44:42.840Z,11.15
2018-12-03T07:47:11.336Z,11.17
2018-12-03T07:49:39.647Z,11.19
2018-12-03T07:52:07.948Z,11.21
2018-12-03T07:54:36.417Z,11.24
2018-12-03T07:57:05.006Z,11.27
2018-12-03T07:59:33.316Z,11.28
2018-12-03T08:02:01.900Z,11.28
2018-12-03T08:04:30.231Z,11.27
2018-12-03T08:06:58.678Z,11.27
2018-12-03T08:09:41.897Z,11.27
2018-12-03T08:12:10.261Z,11.27
2018-12-03T08:14:41.521Z,11.27
2018-12-03T08:17:09.839Z,11.26
2018-12-03T08:19:38.177Z,11.25
2018-12-03T08:22:06.658Z,11.23
2018-12-03T08:24:35.024Z,11.22
2018-12-03T08:27:03.341Z,11.21
2018-12-03T08:29:31.709Z,11.21
2018-12-03T08:32:00.012Z,11.19
2018-12-03T08:34:28.399Z,11.21
2018-12-03T08:36:56.736Z,11.24
2018-12-03T08:39:25.058Z,11.26
2018-12-03T08:41:53.356Z,11.31
2018-12-03T08:44:21.957Z,11.39
2018-12-03T08:46:50.273Z,11.43
2018-12-03T08:49:18.597Z,11.49
2018-12-03T08:51:46.916Z,11.54
2018-12-03T08:54:15.236Z,11.57
2018-12-03T08:56:44.800Z,11.61
2018-12-03T08:59:13.127Z,11.69
2018-12-03T09:01:41.436Z,11.76
2018-12-03T09:04:09.763Z,11.81
2018-12-03T09:06:38.069Z,11.90
2018-12-03T09:09:08.240Z,11.99
2018-12-03T09:11:41.891Z,12.05
2018-12-03T09:14:10.206Z,12.09
2018-12-03T09:16:38.510Z,12.21
2018-12-03T09:19:06.840Z,12.33
2018-12-03T09:21:35.142Z,12.44
2018-12-03T09:24:03.478Z,12.49
2018-12-03T09:26:37.286Z,12.53
2018-12-03T09:29:06.573Z,12.50
2018-12-03T09:31:34.880Z,12.42
2018-12-03T09:34:03.242Z,12.36
2018-12-03T09:36:31.563Z,12.29
2018-12-03T09:39:00.328Z,12.23
2018-12-03T09:41:28.657Z,12.15
2018-12-03T09:43:56.963Z,12.14
2018-12-03T09:46:25.375Z,12.16
2018-12-03T09:48:55.622Z,12.19
2018-12-03T09:51:28.256Z,12.20
2018-12-03T09:53:56.572Z,12.21
2018-12-03T09:56:27.465Z,12.24
2018-12-03T09:58:55.780Z,12.25
2018-12-03T10:01:24.426Z,12.25
2018-12-03T10:03:52.741Z,12.23
2018-12-03T10:06:21.086Z,12.25
2018-12-03T10:08:49.394Z,12.24
2018-12-03T10:11:17.730Z,12.22
2018-12-03T10:13:46.051Z,12.20
2018-12-03T10:16:14.382Z,12.15
2018-12-03T10:18:46.461Z,12.11
2018-12-03T10:21:14.801Z,12.08
2018-12-03T10:23:43.129Z,12.05
2018-12-03T10:26:11.474Z,12.03
2018-12-03T10:28:39.808Z,12.02
2018-12-03T10:31:11.491Z,12.03
2018-12-03T10:33:39.822Z,12.06
2018-12-03T10:36:08.235Z,12.10
2018-12-03T10:38:36.558Z,12.16
2018-12-03T10:41:06.029Z,12.25
2018-12-03T10:43:34.395Z,12.32
2018-12-03T10:46:02.714Z,12.38
2018-12-03T10:48:31.038Z,12.42
2018-12-03T10:50:59.428Z,12.43
2018-12-03T10:53:27.768Z,12.44
2018-12-03T10:55:56.157Z,12.45
2018-12-03T10:58:24.489Z,12.46
2018-12-03T11:01:16.217Z,12.46
2018-12-03T11:04:00.005Z,12.52
2018-12-03T11:06:28.319Z,12.61
2018-12-03T11:08:56.656Z,12.73
2018-12-03T11:11:24.982Z,12.88
2018-12-03T11:13:53.381Z,13.01
2018-12-03T11:16:21.720Z,13.21
2018-12-03T11:18:50.181Z,13.43
2018-12-03T11:21:18.501Z,13.59
2018-12-03T11:23:46.836Z,13.69
2018-12-03T11:26:15.181Z,13.76
2018-12-03T11:28:43.582Z,13.79
2018-12-03T11:31:17.528Z,13.75
2018-12-03T11:33:45.872Z,13.65
2018-12-03T11:36:14.204Z,13.60
2018-12-03T11:38:42.627Z,13.60
2018-12-03T11:41:10.963Z,13.61
2018-12-03T11:43:39.299Z,13.59
2018-12-03T11:46:07.695Z,13.53
2018-12-03T11:48:36.026Z,13.42
2018-12-03T11:51:04.999Z,13.34
2018-12-03T11:53:33.328Z,13.28
2018-12-03T11:56:01.660Z,13.17
2018-12-03T11:58:29.987Z,13.09
2018-12-03T12:00:58.328Z,13.03
2018-12-03T12:03:26.653Z,13.08
2018-12-03T12:05:55.020Z,13.16
2018-12-03T12:08:23.381Z,13.23
2018-12-03T12:10:51.841Z,13.19
2018-12-03T12:13:20.156Z,13.15
2018-12-03T12:15:48.499Z,13.14
2018-12-03T12:18:16.822Z,13.19
2018-12-03T12:20:45.152Z,13.24
2018-12-03T12:23:13.637Z,13.29
2018-12-03T12:25:41.975Z,13.35
2018-12-03T12:28:10.305Z,13.46
2018-12-03T12:30:38.629Z,13.55
2018-12-03T12:33:06.957Z,13.58
2018-12-03T12:35:35.301Z,13.57
2018-12-03T12:38:03.616Z,13.55
2018-12-03T12:40:31.956Z,13.58
2018-12-03T12:43:00.300Z,13.66
2018-12-03T12:45:28.599Z,13.72
2018-12-03T12:47:56.907Z,13.76
2018-12-03T12:50:25.251Z,13.76
2018-12-03T12:52:53.576Z,13.68
2018-12-03T12:55:21.881Z,13.57
2018-12-03T12:57:50.399Z,13.44
2018-12-03T13:00:18.711Z,13.32
2018-12-03T13:02:47.051Z,13.21
2018-12-03T13:05:15.510Z,13.12
2018-12-03T13:07:43.841Z,13.03
2018-12-03T13:10:12.216Z,12.98
2018-12-03T13:12:40.644Z,12.95
2018-12-03T13:15:09.201Z,12.87
2018-12-03T13:17:37.526Z,12.76
2018-12-03T13:20:08.693Z,12.63
2018-12-03T13:22:37.039Z,12.53
2018-12-03T13:25:07.377Z,12.44
2018-12-03T13:27:35.712Z,12.35
2018-12-03T13:30:07.538Z,12.36
2018-12-03T13:32:35.868Z,12.43
2018-12-03T13:35:05.708Z,12.46
2018-12-03T13:37:34.028Z,12.47
2018-12-03T13:40:02.337Z,12.48
2018-12-03T13:42:30.667Z,12.45
2018-12-03T13:44:58.977Z,12.44
2018-12-03T13:47:27.298Z,12.42
2018-12-03T13:49:55.614Z,12.36
2018-12-03T13:52:23.937Z,12.28
2018-12-03T13:54:52.251Z,12.20
2018-12-03T13:57:20.580Z,12.14
2018-12-03T13:59:48.890Z,12.09
2018-12-03T14:02:17.713Z,12.08
2018-12-03T14:04:47.301Z,12.05
2018-12-03T14:07:15.685Z,11.97
2018-12-03T14:09:44.015Z,11.88
2018-12-03T14:12:12.344Z,11.76
2018-12-03T14:14:41.980Z,11.65
2018-12-03T14:17:10.291Z,11.54
2018-12-03T14:19:38.623Z,11.44
2018-12-03T14:22:07.001Z,11.36
2018-12-03T14:24:35.380Z,11.27
2018-12-03T14:27:03.860Z,11.20
2018-12-03T14:29:32.245Z,11.16
2018-12-03T14:32:00.662Z,11.14
2018-12-03T14:34:28.973Z,11.11
2018-12-03T14:36:57.320Z,11.07
2018-12-03T14:39:25.621Z,11.04
2018-12-03T14:41:53.955Z,10.98
2018-12-03T14:44:22.274Z,10.93
2018-12-03T14:46:50.629Z,10.87
2018-12-03T14:49:18.935Z,10.85
2018-12-03T14:51:47.371Z,10.81
2018-12-03T14:54:15.684Z,10.78
2018-12-03T14:56:44.009Z,10.74
2018-12-03T14:59:12.362Z,10.70
2018-12-03T15:01:40.696Z,10.68
2018-12-03T15:04:10.878Z,10.66
2018-12-03T15:06:39.283Z,10.65
2018-12-03T15:09:07.595Z,10.62
2018-12-03T15:11:35.923Z,10.57
2018-12-03T15:14:04.685Z,10.53
2018-12-03T15:16:33.027Z,10.46
2018-12-03T15:19:01.326Z,10.42
2018-12-03T15:21:29.671Z,10.39
2018-12-03T15:23:57.975Z,10.41
2018-12-03T15:26:26.322Z,10.47
2018-12-03T15:28:54.603Z,10.55
2018-12-03T15:31:22.929Z,10.59
2018-12-03T15:33:51.262Z,10.64
2018-12-03T15:36:19.575Z,10.68
2018-12-03T15:38:47.888Z,10.71
2018-12-03T15:41:16.191Z,10.70
2018-12-03T15:43:44.802Z,10.69
2018-12-03T15:46:13.107Z,10.66
2018-12-03T15:48:41.437Z,10.63
2018-12-03T15:51:09.742Z,10.60
2018-12-03T15:53:38.066Z,10.56
2018-12-03T15:56:06.451Z,10.52
2018-12-03T15:58:34.772Z,10.46
2018-12-03T16:01:03.073Z,10.44
2018-12-03T16:03:31.416Z,10.42
2018-12-03T16:05:59.735Z,10.37
2018-12-03T16:08:28.145Z,10.27
2018-12-03T16:10:56.437Z,10.15
2018-12-03T16:13:24.782Z,10.04
2018-12-03T16:15:53.332Z,9.96
2018-12-03T16:18:21.665Z,9.89
2018-12-03T16:20:49.972Z,9.83
2018-12-03T16:23:18.310Z,9.79
2018-12-03T16:25:46.635Z,9.75
2018-12-03T16:28:14.982Z,9.75
2018-12-03T16:30:43.295Z,9.74
2018-12-03T16:33:11.641Z,9.77
2018-12-03T16:35:39.939Z,9.82
2018-12-03T16:38:08.272Z,9.86
2018-12-03T16:40:36.586Z,9.86
2018-12-03T16:43:04.911Z,9.82
2018-12-03T16:45:33.214Z,9.76
2018-12-03T16:48:01.519Z,9.72
2018-12-03T16:50:29.879Z,9.68
2018-12-03T16:52:58.157Z,9.64
2018-12-03T16:55:26.486Z,9.63
2018-12-03T16:57:54.869Z,9.64
2018-12-03T17:00:23.210Z,9.70
2018-12-03T17:02:51.555Z,9.76
2018-12-03T17:05:19.852Z,9.81
2018-12-03T17:07:48.235Z,9.83
2018-12-03T17:10:16.572Z,9.80
2018-12-03T17:12:44.888Z,9.75
2018-12-03T17:15:13.295Z,9.71
2018-12-03T17:17:41.605Z,9.70
2018-12-03T17:20:11.171Z,9.74
2018-12-03T17:22:39.637Z,9.74
2018-12-03T17:25:08.910Z,9.75
2018-12-03T17:27:37.328Z,9.78
2018-12-03T17:30:07.191Z,9.84
2018-12-03T17:32:35.587Z,9.93
2018-12-03T17:35:04.526Z,9.98
2018-12-03T17:37:33.018Z,10.04
2018-12-03T17:40:01.350Z,10.07
2018-12-03T17:42:29.697Z,10.06
2018-12-03T17:44:58.054Z,9.98
2018-12-03T17:47:26.384Z,9.86
2018-12-03T17:49:54.744Z,9.72
2018-12-03T17:52:23.129Z,9.60
2018-12-03T17:54:51.457Z,9.49
2018-12-03T17:57:19.783Z,9.39
2018-12-03T17:59:48.338Z,9.31
2018-12-03T18:02:16.671Z,9.23
2018-12-03T18:04:44.990Z,9.15
2018-12-03T18:07:13.320Z,9.08
2018-12-03T18:09:41.620Z,9.03
2018-12-03T18:12:09.939Z,8.98
2018-12-03T18:14:38.252Z,8.93
2018-12-03T18:17:06.579Z,8.87
2018-12-03T18:19:34.886Z,8.81
2018-12-03T18:22:03.230Z,8.76
2018-12-03T18:24:31.537Z,8.72
2018-12-03T18:26:59.851Z,8.67
2018-12-03T18:29:28.162Z,8.64
2018-12-03T18:31:56.508Z,8.59
2018-12-03T18:34:24.800Z,8.53
2018-12-03T18:36:53.147Z,8.50
2018-12-03T18:39:21.433Z,8.48
2018-12-03T18:41:49.757Z,8.43
2018-12-03T18:44:18.060Z,8.39
2018-12-03T18:46:46.389Z,8.36
2018-12-03T18:49:14.692Z,8.33
2018-12-03T18:51:43.029Z,8.30
2018-12-03T18:54:11.330Z,8.24
2018-12-03T18:56:39.663Z,8.19
2018-12-03T18:59:07.968Z,8.14
2018-12-03T19:01:36.315Z,8.10
2018-12-03T19:04:04.631Z,8.10
2018-12-03T19:06:32.958Z,8.11
2018-12-03T19:09:01.297Z,8.13
2018-12-03T19:11:29.659Z,8.13
2018-12-03T19:13:58.063Z,8.13
2018-12-03T19:16:26.394Z,8.10
2018-12-03T19:18:54.716Z,8.11
2018-12-03T19:21:23.070Z,8.09
2018-12-03T19:23:51.349Z,8.08
2018-12-03T19:26:19.708Z,8.07
2018-12-03T19:28:48.008Z,8.06
2018-12-03T19:31:16.354Z,8.01
2018-12-03T19:33:44.639Z,8.00
2018-12-03T19:36:12.993Z,7.99
2018-12-03T19:38:41.302Z,7.98
2018-12-03T19:41:09.626Z,7.97
2018-12-03T19:43:37.961Z,7.98
2018-12-03T19:46:06.258Z,7.98
2018-12-03T19:48:34.670Z,7.96
2018-12-03T19:51:02.971Z,7.94
2018-12-03T19:53:31.304Z,7.95
2018-12-03T19:55:59.613Z,7.94
2018-12-03T19:58:28.020Z,7.94
2018-12-03T20:00:56.364Z,7.92
2018-12-03T20:03:24.679Z,7.91
2018-12-03T20:05:52.983Z,7.92
2018-12-03T20:08:21.306Z,7.93
2018-12-03T20:10:49.611Z,7.93
2018-12-03T20:13:17.943Z,7.93
2018-12-03T20:15:46.254Z,7.94
2018-12-03T20:18:14.646Z,7.89
2018-12-03T20:20:43.131Z,7.86
2018-12-03T20:23:11.527Z,7.83
2018-12-03T20:25:40.456Z,7.80
2018-12-03T20:28:09.003Z,7.79
2018-12-03T20:30:39.465Z,7.81
2018-12-03T20:33:08.059Z,7.78
2018-12-03T20:35:36.630Z,7.78
2018-12-03T20:38:05.122Z,7.77
2018-12-03T20:40:33.793Z,7.75
2018-12-03T20:43:02.100Z,7.76
2018-12-03T20:45:36.024Z,7.76
2018-12-03T20:48:06.074Z,7.76
2018-12-03T20:50:34.451Z,7.78
2018-12-03T20:53:02.750Z,7.78
2018-12-03T20:55:31.267Z,7.80
2018-12-03T20:57:59.562Z,7.80
2018-12-03T21:00:27.874Z,7.80
2018-12-03T21:02:56.198Z,7.80
2018-12-03T21:05:24.499Z,7.79
2018-12-03T21:07:52.808Z,7.78
2018-12-03T21:10:21.370Z,7.79
2018-12-03T21:12:49.676Z,7.79
2018-12-03T21:15:17.975Z,7.78
2018-12-03T21:17:46.396Z,7.84
2018-12-03T21:20:14.714Z,7.92
2018-12-03T21:22:43.131Z,8.01
2018-12-03T21:25:11.473Z,8.10
2018-12-03T21:27:39.775Z,8.17
2018-12-03T21:30:09.206Z,8.20
2018-12-03T21:32:37.598Z,8.22
2018-12-03T21:35:06.917Z,8.23
2018-12-03T21:37:35.223Z,8.20
2018-12-03T21:40:04.512Z,8.21
2018-12-03T21:42:32.825Z,8.23
2018-12-03T21:45:01.155Z,8.20
2018-12-03T21:47:29.670Z,8.21
2018-12-03T21:49:57.961Z,8.22
2018-12-03T21:52:26.256Z,8.23
2018-12-03T21:54:54.580Z,8.23
2018-12-03T21:57:22.899Z,8.24
2018-12-03T21:59:56.733Z,8.20
2018-12-03T22:02:24.032Z,8.16
2018-12-03T22:04:52.207Z,8.12
2018-12-03T22:07:20.515Z,8.12
2018-12-03T22:09:48.860Z,8.12
2018-12-03T22:12:17.192Z,8.13
2018-12-03T22:14:45.485Z,8.11
2018-12-03T22:17:14.001Z,8.08
2018-12-03T22:19:42.641Z,8.04
2018-12-03T22:22:10.955Z,8.01
2018-12-03T22:24:39.296Z,7.98
2018-12-03T22:27:07.591Z,7.96
2018-12-03T22:29:35.898Z,7.94
2018-12-03T22:32:04.246Z,7.95
2018-12-03T22:34:32.549Z,7.97
2018-12-03T22:37:00.859Z,8.02
2018-12-03T22:39:29.200Z,8.07
2018-12-03T22:41:57.493Z,8.13
2018-12-03T22:44:25.807Z,8.21
2018-12-03T22:46:54.118Z,8.28
2018-12-03T22:49:22.432Z,8.35
2018-12-03T22:51:51.053Z,8.41
2018-12-03T22:54:19.570Z,8.47
2018-12-03T22:56:48.230Z,8.53
2018-12-03T22:59:16.557Z,8.59
2018-12-03T23:01:45.293Z,8.66
2018-12-03T23:04:13.608Z,8.69
2018-12-03T23:06:42.091Z,8.73
2018-12-03T23:09:10.418Z,8.77
2018-12-03T23:11:38.727Z,8.77
2018-12-03T23:14:07.041Z,8.78
2018-12-03T23:16:35.737Z,8.78
2018-12-03T23:19:04.191Z,8.79
2018-12-03T23:21:32.461Z,8.79
2018-12-03T23:24:00.939Z,8.82
2018-12-03T23:26:29.231Z,8.80
2018-12-03T23:28:57.536Z,8.76
2018-12-03T23:31:25.860Z,8.73
2018-12-03T23:33:54.175Z,8.71
2018-12-03T23:36:22.487Z,8.72
2018-12-03T23:38:50.804Z,8.71
2018-12-03T23:41:19.123Z,8.69
2018-12-03T23:43:47.420Z,8.66
2018-12-03T23:46:15.940Z,8.64
2018-12-03T23:48:44.239Z,8.62
2018-12-03T23:51:47.414Z,8.67
2018-12-03T23:54:15.723Z,8.71
2018-12-03T23:56:44.028Z,8.75
2018-12-03T23:59:12.354Z,8.81
